Time;durP1;ratioP1;P1;durP2;ratioP2;P2;SDS_P1;SDS_P2;PMS_P1;PMS_P2;Temp;Humidity;BMP_temperature;BMP_pressure;BME280_temperature;BME280_humidity;BME280_pressure;Samples;Min_cycle;Max_cycle;Signal;HPM_P1;HPM_P2
2023/04/11 00:02:08;;;;;;;59.10;3.27;;;;;;;;;;5072295;28;20940;-69
2023/04/11 00:04:37;;;;;;;58.10;3.63;;;;;;;;;;5072757;28;20456;-68
2023/04/11 00:07:06;;;;;;;59.50;3.37;;;;;;;;;;5072212;28;20526;-68
2023/04/11 00:09:33;;;;;;;58.47;3.50;;;;;;;;;;5071747;28;20468;-70
2023/04/11 00:12:01;;;;;;;58.67;3.47;;;;;;;;;;5072266;28;20451;-68
2023/04/11 00:14:31;;;;;;;57.83;3.30;;;;;;;;;;5072303;28;20446;-68
2023/04/11 00:17:00;;;;;;;59.07;3.80;;;;;;;;;;5072101;28;20456;-68
2023/04/11 00:19:28;;;;;;;57.67;3.33;;;;;;;;;;5071792;28;20525;-68
2023/04/11 00:21:57;;;;;;;58.60;3.60;;;;;;;;;;5072036;28;20458;-68
2023/04/11 00:24:24;;;;;;;60.37;3.97;;;;;;;;;;5071917;28;20474;-69
2023/04/11 00:26:51;;;;;;;58.07;3.00;;;;;;;;;;5072153;28;20644;-68
2023/04/11 00:29:19;;;;;;;60.43;3.37;;;;;;;;;;5071772;28;20928;-68
2023/04/11 00:31:46;;;;;;;59.77;3.20;;;;;;;;;;5071348;28;20531;-69
2023/04/11 00:34:13;;;;;;;59.30;3.77;;;;;;;;;;5071951;28;20449;-68
2023/04/11 00:36:42;;;;;;;58.67;3.30;;;;;;;;;;5071868;28;20966;-70
2023/04/11 00:39:09;;;;;;;59.40;3.50;;;;;;;;;;5071324;28;20471;-68
2023/04/11 00:41:36;;;;;;;58.10;3.37;;;;;;;;;;5072239;28;20440;-69
2023/04/11 00:44:03;;;;;;;60.67;3.63;;;;;;;;;;5071754;28;20450;-68
2023/04/11 00:46:30;;;;;;;60.27;3.70;;;;;;;;;;5071728;28;20482;-69
2023/04/11 00:48:57;;;;;;;58.40;3.40;;;;;;;;;;5071284;28;20475;-68
2023/04/11 00:51:24;;;;;;;57.80;3.10;;;;;;;;;;5071531;28;20447;-69
2023/04/11 00:53:53;;;;;;;58.70;4.00;;;;;;;;;;5071930;28;20454;-68
2023/04/11 00:56:21;;;;;;;59.60;3.40;;;;;;;;;;5071661;28;20451;-68
2023/04/11 00:58:48;;;;;;;57.70;3.17;;;;;;;;;;5071245;28;21036;-68
2023/04/11 01:01:15;;;;;;;60.60;3.70;;;;;;;;;;5071735;28;20446;-67
2023/04/11 01:03:44;;;;;;;58.67;3.20;;;;;;;;;;5071557;28;20451;-68
2023/04/11 01:06:11;;;;;;;58.30;3.50;;;;;;;;;;5071329;28;20608;-69
2023/04/11 01:08:39;;;;;;;59.00;3.60;;;;;;;;;;5071187;28;20801;-68
2023/04/11 01:11:08;;;;;;;61.30;3.27;;;;;;;;;;5071621;28;20447;-68
2023/04/11 01:13:36;;;;;;;59.57;3.50;;;;;;;;;;5071579;28;20451;-67
2023/04/11 01:16:03;;;;;;;60.07;3.40;;;;;;;;;;5071596;28;20447;-69
2023/04/11 01:18:31;;;;;;;58.37;3.10;;;;;;;;;;5071070;28;20505;-68
2023/04/11 01:20:59;;;;;;;60.33;3.97;;;;;;;;;;5071477;28;20451;-68
2023/04/11 01:23:28;;;;;;;59.47;3.17;;;;;;;;;;5071643;28;20466;-68
2023/04/11 01:25:55;;;;;;;58.27;3.77;;;;;;;;;;5071324;28;20456;-68
2023/04/11 01:28:22;;;;;;;60.30;3.23;;;;;;;;;;5071232;28;20467;-67
2023/04/11 01:30:49;;;;;;;60.90;3.87;;;;;;;;;;5071093;28;20455;-68
2023/04/11 01:33:17;;;;;;;58.77;3.60;;;;;;;;;;5071126;28;20464;-68
2023/04/11 01:35:44;;;;;;;58.30;3.53;;;;;;;;;;5071457;28;20443;-68
2023/04/11 01:38:11;;;;;;;60.10;3.47;;;;;;;;;;5071263;28;20467;-68
2023/04/11 01:40:40;;;;;;;60.30;3.73;;;;;;;;;;5071241;28;20451;-67
2023/04/11 01:43:08;;;;;;;58.80;3.53;;;;;;;;;;5073324;28;20633;-68
2023/04/11 01:45:36;;;;;;;59.80;3.50;;;;;;;;;;5073355;28;20829;-67
2023/04/11 01:48:06;;;;;;;58.57;3.10;;;;;;;;;;5074563;28;20860;-68
2023/04/11 01:50:33;;;;;;;59.27;3.67;;;;;;;;;;5074866;28;20443;-68
2023/04/11 01:53:01;;;;;;;58.13;3.33;;;;;;;;;;5074647;28;20463;-68
2023/04/11 01:55:28;;;;;;;62.50;3.83;;;;;;;;;;5075091;28;20850;-68
2023/04/11 01:57:56;;;;;;;57.80;3.20;;;;;;;;;;5074715;28;20983;-70
2023/04/11 02:00:23;;;;;;;60.00;3.27;;;;;;;;;;5074535;28;20457;-68
2023/04/11 02:02:50;;;;;;;59.77;3.77;;;;;;;;;;5074504;28;20447;-68
2023/04/11 02:05:17;;;;;;;58.07;3.70;;;;;;;;;;5074645;28;20443;-68
2023/04/11 02:07:45;;;;;;;58.47;3.27;;;;;;;;;;5074275;28;20493;-68
2023/04/11 02:10:12;;;;;;;59.37;4.00;;;;;;;;;;5074391;28;20860;-67
2023/04/11 02:12:39;;;;;;;59.60;3.50;;;;;;;;;;5074599;28;20454;-69
2023/04/11 02:15:08;;;;;;;58.30;3.67;;;;;;;;;;5074692;28;20444;-67
2023/04/11 02:17:35;;;;;;;58.87;4.00;;;;;;;;;;5074181;28;21004;-68
2023/04/11 02:20:05;;;;;;;60.40;4.27;;;;;;;;;;5074038;28;20443;-68
2023/04/11 02:22:33;;;;;;;60.00;4.03;;;;;;;;;;5074710;28;20436;-68
2023/04/11 02:25:00;;;;;;;58.60;3.60;;;;;;;;;;5074280;28;20490;-68
2023/04/11 02:27:27;;;;;;;60.00;4.30;;;;;;;;;;5074168;28;20483;-69
2023/04/11 02:29:54;;;;;;;59.03;4.20;;;;;;;;;;5073945;28;20947;-68
2023/04/11 02:32:22;;;;;;;58.70;4.40;;;;;;;;;;5074003;28;20451;-69
2023/04/11 02:34:49;;;;;;;59.37;4.20;;;;;;;;;;5073850;28;20460;-68
2023/04/11 02:37:16;;;;;;;59.67;4.10;;;;;;;;;;5074215;28;20443;-67
2023/04/11 02:39:43;;;;;;;59.40;4.33;;;;;;;;;;5073785;28;20478;-68
2023/04/11 02:42:12;;;;;;;58.67;3.73;;;;;;;;;;5073844;28;20458;-68
2023/04/11 02:44:39;;;;;;;63.40;3.87;;;;;;;;;;5074025;28;20451;-68
2023/04/11 02:47:06;;;;;;;59.57;4.10;;;;;;;;;;5073735;28;20515;-68
2023/04/11 02:49:35;;;;;;;58.67;3.83;;;;;;;;;;5073226;28;20897;-68
2023/04/11 02:52:02;;;;;;;60.03;4.00;;;;;;;;;;5073836;28;20456;-66
2023/04/11 02:54:29;;;;;;;58.90;3.80;;;;;;;;;;5073212;28;20459;-66
2023/04/11 02:56:56;;;;;;;58.90;3.87;;;;;;;;;;5073668;28;20444;-66
2023/04/11 02:59:23;;;;;;;59.50;4.27;;;;;;;;;;5073094;28;20477;-66
2023/04/11 03:01:50;;;;;;;58.30;3.67;;;;;;;;;;5073873;28;20466;-66
2023/04/11 03:04:17;;;;;;;59.40;3.50;;;;;;;;;;5073668;28;20450;-65
2023/04/11 03:06:46;;;;;;;59.10;3.80;;;;;;;;;;5073510;28;20486;-68
2023/04/11 03:09:13;;;;;;;58.60;3.27;;;;;;;;;;5073046;28;20474;-67
2023/04/11 03:11:40;;;;;;;58.97;3.27;;;;;;;;;;5073252;28;20961;-69
2023/04/11 03:14:07;;;;;;;58.60;3.50;;;;;;;;;;5073284;28;20451;-67
2023/04/11 03:16:34;;;;;;;58.07;3.60;;;;;;;;;;5073070;28;20457;-69
2023/04/11 03:19:01;;;;;;;59.27;3.20;;;;;;;;;;5072721;28;20471;-68
2023/04/11 03:21:28;;;;;;;58.10;3.10;;;;;;;;;;5073243;28;20451;-68
2023/04/11 03:23:57;;;;;;;60.00;3.30;;;;;;;;;;5073147;28;20459;-67
2023/04/11 03:26:25;;;;;;;58.90;3.30;;;;;;;;;;5073068;28;20470;-67
2023/04/11 03:28:53;;;;;;;59.70;3.20;;;;;;;;;;5072434;28;20620;-68
2023/04/11 03:31:20;;;;;;;58.90;3.20;;;;;;;;;;5072807;28;20447;-68
2023/04/11 03:33:47;;;;;;;59.30;3.97;;;;;;;;;;5072794;28;21015;-68
2023/04/11 03:36:15;;;;;;;58.17;3.40;;;;;;;;;;5072954;28;20454;-67
2023/04/11 03:38:42;;;;;;;60.00;3.30;;;;;;;;;;5072668;28;20478;-67
2023/04/11 03:41:11;;;;;;;59.70;3.20;;;;;;;;;;5072622;28;20465;-68
2023/04/11 03:43:38;;;;;;;60.93;3.33;;;;;;;;;;5072523;28;20966;-68
2023/04/11 03:46:05;;;;;;;60.00;3.17;;;;;;;;;;5072753;28;20447;-68
2023/04/11 03:48:32;;;;;;;59.90;3.93;;;;;;;;;;5072142;28;20490;-67
2023/04/11 03:50:59;;;;;;;57.80;3.07;;;;;;;;;;5072620;28;20447;-68
2023/04/11 03:53:26;;;;;;;59.37;3.40;;;;;;;;;;5072747;28;20454;-67
2023/04/11 03:55:53;;;;;;;60.00;3.10;;;;;;;;;;5072720;28;20447;-67
2023/04/11 03:58:22;;;;;;;59.30;4.30;;;;;;;;;;5072338;28;20474;-67
2023/04/11 04:00:49;;;;;;;59.03;3.47;;;;;;;;;;5072517;28;20471;-67
2023/04/11 04:03:17;;;;;;;60.07;3.20;;;;;;;;;;5072682;28;20448;-67
2023/04/11 04:05:44;;;;;;;59.77;3.73;;;;;;;;;;5071637;28;20454;-67
2023/04/11 04:08:11;;;;;;;59.27;3.40;;;;;;;;;;5071975;28;20494;-67
2023/04/11 04:10:38;;;;;;;59.20;3.70;;;;;;;;;;5071843;28;20450;-68
2023/04/11 04:13:06;;;;;;;60.90;3.60;;;;;;;;;;5072127;28;20443;-68
2023/04/11 04:15:34;;;;;;;61.80;4.30;;;;;;;;;;5072387;28;20447;-67
2023/04/11 04:18:01;;;;;;;59.60;3.50;;;;;;;;;;5071903;28;20467;-67
2023/04/11 04:20:28;;;;;;;59.50;3.47;;;;;;;;;;5071877;28;20447;-67
2023/04/11 04:22:55;;;;;;;58.63;3.10;;;;;;;;;;5072105;28;20443;-67
2023/04/11 04:25:24;;;;;;;61.93;3.33;;;;;;;;;;5071986;28;20947;-69
2023/04/11 04:27:52;;;;;;;59.90;3.60;;;;;;;;;;5071844;28;21033;-68
2023/04/11 04:30:20;;;;;;;59.37;3.70;;;;;;;;;;5071777;28;20497;-67
2023/04/11 04:32:53;;;;;;;60.77;3.80;;;;;;;;;;5071987;28;20834;-67
2023/04/11 04:35:20;;;;;;;61.87;4.30;;;;;;;;;;5072001;28;20865;-67
2023/04/11 04:37:48;;;;;;;59.20;3.40;;;;;;;;;;5071602;28;20830;-66
2023/04/11 04:40:19;;;;;;;59.77;3.53;;;;;;;;;;5071453;28;20455;-67
2023/04/11 04:42:56;;;;;;;58.97;3.50;;;;;;;;;;5072013;28;20535;-67
2023/04/11 04:45:24;;;;;;;58.57;3.83;;;;;;;;;;5071823;28;20448;-68
2023/04/11 04:47:52;;;;;;;60.50;3.87;;;;;;;;;;5071789;28;20514;-67
2023/04/11 04:50:20;;;;;;;61.20;4.00;;;;;;;;;;5071313;28;20443;-67
2023/04/11 04:52:47;;;;;;;59.07;3.40;;;;;;;;;;5071802;28;20467;-68
2023/04/11 04:55:15;;;;;;;61.07;4.00;;;;;;;;;;5071820;28;20448;-68
2023/04/11 04:57:42;;;;;;;59.93;3.63;;;;;;;;;;5071575;28;20448;-68
2023/04/11 05:00:10;;;;;;;61.00;3.70;;;;;;;;;;5071245;28;20979;-68
2023/04/11 05:02:39;;;;;;;61.17;4.13;;;;;;;;;;5071579;28;20801;-67
2023/04/11 05:05:08;;;;;;;59.67;3.47;;;;;;;;;;5071788;28;20451;-68
2023/04/11 05:07:36;;;;;;;58.40;3.30;;;;;;;;;;5071566;28;20479;-67
2023/04/11 05:10:03;;;;;;;61.10;3.37;;;;;;;;;;5071454;28;20448;-67
2023/04/11 05:12:30;;;;;;;58.30;3.30;;;;;;;;;;5071633;28;20474;-68
2023/04/11 05:14:57;;;;;;;59.50;3.10;;;;;;;;;;5071626;28;20454;-67
2023/04/11 05:17:25;;;;;;;59.77;3.23;;;;;;;;;;5072457;28;20823;-67
2023/04/11 05:19:52;;;;;;;59.03;3.47;;;;;;;;;;5075351;28;20825;-68
2023/04/11 05:22:20;;;;;;;58.17;3.47;;;;;;;;;;5075557;28;20451;-68
2023/04/11 05:24:48;;;;;;;59.63;3.10;;;;;;;;;;5075315;28;20753;-67
2023/04/11 05:27:16;;;;;;;57.43;2.83;;;;;;;;;;5075234;28;20451;-67
2023/04/11 05:29:43;;;;;;;58.90;3.10;;;;;;;;;;5074977;28;20471;-68
2023/04/11 05:32:10;;;;;;;60.43;3.00;;;;;;;;;;5075410;28;20454;-68
2023/04/11 05:34:50;;;;;;;59.90;3.73;;;;;;;;;;5075119;28;20451;-67
2023/04/11 05:37:17;;;;;;;59.53;3.30;;;;;;;;;;5075234;28;20446;-67
2023/04/11 05:39:46;;;;;;;58.30;2.70;;;;;;;;;;5074723;28;20926;-67
2023/04/11 05:42:13;;;;;;;59.43;2.77;;;;;;;;;;5075009;28;20461;-68
2023/04/11 05:44:40;;;;;;;57.93;2.90;;;;;;;;;;5074904;28;20813;-67
2023/04/11 05:47:07;;;;;;;57.80;3.03;;;;;;;;;;5075061;28;20447;-67
2023/04/11 05:49:34;;;;;;;61.07;2.87;;;;;;;;;;5074484;28;20505;-67
2023/04/11 05:52:01;;;;;;;59.87;2.83;;;;;;;;;;5074933;28;20451;-68
2023/04/11 05:54:32;;;;;;;58.00;3.10;;;;;;;;;;5074854;28;20868;-68
2023/04/11 05:57:02;;;;;;;58.67;3.00;;;;;;;;;;5074686;28;20512;-68
2023/04/11 05:59:31;;;;;;;58.00;3.03;;;;;;;;;;5074235;28;20471;-68
2023/04/11 06:01:58;;;;;;;58.53;3.30;;;;;;;;;;5074622;28;20952;-67
2023/04/11 06:04:25;;;;;;;57.97;3.00;;;;;;;;;;5074724;28;20447;-68
2023/04/11 06:06:53;;;;;;;57.73;2.70;;;;;;;;;;5074505;28;20461;-68
2023/04/11 06:09:20;;;;;;;59.07;3.30;;;;;;;;;;5073930;28;21007;-68
2023/04/11 06:11:47;;;;;;;59.67;3.73;;;;;;;;;;5074494;28;20455;-68
2023/04/11 06:14:16;;;;;;;62.93;3.50;;;;;;;;;;5074594;28;20439;-67
2023/04/11 06:16:43;;;;;;;59.17;2.90;;;;;;;;;;5074376;28;20440;-68
2023/04/11 06:19:10;;;;;;;61.80;3.30;;;;;;;;;;5073982;28;20463;-68
2023/04/11 06:21:37;;;;;;;59.80;3.10;;;;;;;;;;5074331;28;20443;-68
2023/04/11 06:24:05;;;;;;;59.37;3.20;;;;;;;;;;5074136;28;20516;-67
2023/04/11 06:26:32;;;;;;;58.00;3.17;;;;;;;;;;5074527;28;20448;-67
2023/04/11 06:29:01;;;;;;;61.13;3.20;;;;;;;;;;5072754;28;20515;-67
2023/04/11 06:31:30;;;;;;;61.83;2.90;;;;;;;;;;5074052;28;20982;-68
2023/04/11 06:33:57;;;;;;;61.90;3.10;;;;;;;;;;5074093;28;20444;-67
2023/04/11 06:36:24;;;;;;;60.07;3.00;;;;;;;;;;5073930;28;20455;-68
2023/04/11 06:38:51;;;;;;;59.67;2.90;;;;;;;;;;5073731;28;20983;-68
2023/04/11 06:41:19;;;;;;;61.03;3.20;;;;;;;;;;5073966;28;20444;-68
2023/04/11 06:43:46;;;;;;;58.60;2.93;;;;;;;;;;5073763;28;20454;-67
2023/04/11 06:46:13;;;;;;;58.40;2.93;;;;;;;;;;5073858;28;20451;-68
2023/04/11 06:48:41;;;;;;;60.27;3.40;;;;;;;;;;5073288;28;20490;-67
2023/04/11 06:51:09;;;;;;;59.20;3.27;;;;;;;;;;5073679;28;20451;-68
2023/04/11 06:53:36;;;;;;;58.60;4.13;;;;;;;;;;5073831;28;20451;-68
2023/04/11 06:56:03;;;;;;;61.90;3.10;;;;;;;;;;5073511;28;20448;-67
2023/04/11 06:58:30;;;;;;;59.80;2.70;;;;;;;;;;5073403;28;20459;-68
2023/04/11 07:00:57;;;;;;;60.17;3.47;;;;;;;;;;5073591;28;20447;-67
2023/04/11 07:03:25;;;;;;;59.47;3.30;;;;;;;;;;5073456;28;20448;-68
2023/04/11 07:05:53;;;;;;;58.20;3.00;;;;;;;;;;5073355;28;20960;-67
2023/04/11 07:08:20;;;;;;;59.20;2.80;;;;;;;;;;5073268;28;20677;-68
2023/04/11 07:10:47;;;;;;;59.20;3.37;;;;;;;;;;5073180;28;20454;-68
2023/04/11 07:13:15;;;;;;;60.27;2.70;;;;;;;;;;5073393;28;20813;-68
2023/04/11 07:15:42;;;;;;;58.70;2.80;;;;;;;;;;5073303;28;20450;-68
2023/04/11 07:18:10;;;;;;;58.63;2.80;;;;;;;;;;5072968;28;20835;-68
2023/04/11 07:20:37;;;;;;;62.00;3.03;;;;;;;;;;5073152;28;20444;-68
2023/04/11 07:23:05;;;;;;;60.00;3.03;;;;;;;;;;5073391;28;20451;-67
2023/04/11 07:25:33;;;;;;;57.77;2.87;;;;;;;;;;5073095;28;20443;-67
2023/04/11 07:28:00;;;;;;;58.93;3.33;;;;;;;;;;5072838;28;20509;-68
2023/04/11 07:30:27;;;;;;;60.40;3.17;;;;;;;;;;5072653;28;20455;-68
2023/04/11 07:32:54;;;;;;;58.40;3.13;;;;;;;;;;5072897;28;20450;-67
2023/04/11 07:35:21;;;;;;;59.53;2.97;;;;;;;;;;5073022;28;20443;-68
2023/04/11 07:37:48;;;;;;;62.43;3.10;;;;;;;;;;5072873;28;21014;-67
2023/04/11 07:40:17;;;;;;;59.87;3.53;;;;;;;;;;5072281;28;20451;-67
2023/04/11 07:42:45;;;;;;;58.63;3.27;;;;;;;;;;5072640;28;20455;-67
2023/04/11 07:45:12;;;;;;;58.60;3.13;;;;;;;;;;5072514;28;20458;-67
2023/04/11 07:47:39;;;;;;;57.87;3.20;;;;;;;;;;5072767;28;20448;-68
2023/04/11 07:50:06;;;;;;;58.67;3.17;;;;;;;;;;5072106;28;20483;-67
2023/04/11 07:52:34;;;;;;;61.23;3.37;;;;;;;;;;5072647;28;20504;-68
2023/04/11 07:55:01;;;;;;;58.67;3.00;;;;;;;;;;5072410;28;20447;-67
2023/04/11 07:57:30;;;;;;;59.77;3.27;;;;;;;;;;5072346;28;20512;-68
2023/04/11 07:59:59;;;;;;;64.07;3.40;;;;;;;;;;5072043;28;20451;-67
2023/04/11 08:02:26;;;;;;;68.10;3.60;;;;;;;;;;5072309;28;20970;-67
2023/04/11 08:04:53;;;;;;;59.30;3.13;;;;;;;;;;5072385;28;20827;-68
2023/04/11 08:07:20;;;;;;;60.97;3.20;;;;;;;;;;5072496;28;20822;-66
2023/04/11 08:09:47;;;;;;;60.13;3.10;;;;;;;;;;5071763;28;20498;-67
2023/04/11 08:12:15;;;;;;;61.37;3.40;;;;;;;;;;5072190;28;20448;-67
2023/04/11 08:14:43;;;;;;;61.27;2.90;;;;;;;;;;5072095;28;20946;-68
2023/04/11 08:17:13;;;;;;;63.93;4.37;;;;;;;;;;5072275;28;20443;-68
2023/04/11 08:19:40;;;;;;;61.90;3.53;;;;;;;;;;5071892;28;20466;-68
2023/04/11 08:22:07;;;;;;;58.30;2.77;;;;;;;;;;5072074;28;20450;-66
2023/04/11 08:24:34;;;;;;;59.80;3.40;;;;;;;;;;5072092;28;20471;-68
2023/04/11 08:27:02;;;;;;;63.20;3.70;;;;;;;;;;5071900;28;21035;-67
2023/04/11 08:29:29;;;;;;;62.53;3.50;;;;;;;;;;5071722;28;20540;-68
2023/04/11 08:31:57;;;;;;;60.07;3.10;;;;;;;;;;5072102;28;20443;-67
2023/04/11 08:34:25;;;;;;;61.40;3.60;;;;;;;;;;5071863;28;20447;-67
2023/04/11 08:36:52;;;;;;;62.60;3.70;;;;;;;;;;5072348;28;20455;-67
2023/04/11 08:39:19;;;;;;;58.90;3.23;;;;;;;;;;5071377;28;20467;-67
2023/04/11 08:41:46;;;;;;;63.33;3.50;;;;;;;;;;5071881;28;20456;-67
2023/04/11 08:44:14;;;;;;;59.77;3.27;;;;;;;;;;5071949;28;20455;-68
2023/04/11 08:46:41;;;;;;;59.37;2.90;;;;;;;;;;5072051;28;20445;-66
2023/04/11 08:49:10;;;;;;;62.07;3.40;;;;;;;;;;5071538;28;20479;-66
2023/04/11 08:51:38;;;;;;;59.27;2.97;;;;;;;;;;5071392;28;20456;-68
2023/04/11 08:54:06;;;;;;;58.70;2.70;;;;;;;;;;5071507;28;20447;-67
2023/04/11 08:56:34;;;;;;;63.10;3.33;;;;;;;;;;5071969;28;20808;-66
2023/04/11 08:59:01;;;;;;;59.90;3.10;;;;;;;;;;5071560;28;20459;-69
2023/04/11 09:01:30;;;;;;;58.87;3.00;;;;;;;;;;5071815;28;20473;-66
2023/04/11 09:03:58;;;;;;;59.67;3.07;;;;;;;;;;5071592;28;20458;-68
2023/04/11 09:06:29;;;;;;;60.70;3.30;;;;;;;;;;5071518;28;20443;-67
2023/04/11 09:08:57;;;;;;;62.07;3.27;;;;;;;;;;5071216;28;20483;-67
2023/04/11 09:11:24;;;;;;;61.40;3.10;;;;;;;;;;5071580;28;20453;-67
2023/04/11 09:14:06;;;;;;;61.10;3.10;;;;;;;;;;5071451;28;20451;-70
2023/04/11 09:16:33;;;;;;;59.70;3.37;;;;;;;;;;5071548;28;20850;-66
2023/04/11 09:19:00;;;;;;;60.20;3.13;;;;;;;;;;5070943;28;20460;-67
2023/04/11 09:21:29;;;;;;;61.60;3.30;;;;;;;;;;5071693;28;20766;-66
2023/04/11 09:23:58;;;;;;;61.80;3.77;;;;;;;;;;5071431;28;20459;-69
2023/04/11 09:26:26;;;;;;;59.93;3.53;;;;;;;;;;5071339;28;20447;-66
2023/04/11 09:28:53;;;;;;;59.20;3.10;;;;;;;;;;5070985;28;20487;-67
2023/04/11 09:31:21;;;;;;;61.90;3.40;;;;;;;;;;5071256;28;20451;-67
2023/04/11 09:33:59;;;;;;;60.47;3.43;;;;;;;;;;5071255;28;20443;-67
2023/04/11 09:36:27;;;;;;;57.97;2.77;;;;;;;;;;5071304;28;20461;-69
2023/04/11 09:38:56;;;;;;;59.77;3.27;;;;;;;;;;5070954;28;20781;-67
2023/04/11 09:41:30;;;;;;;59.40;3.50;;;;;;;;;;5071267;28;20524;-68
2023/04/11 09:43:58;;;;;;;59.07;3.27;;;;;;;;;;5071174;28;20451;-67
2023/04/11 09:46:25;;;;;;;60.40;3.20;;;;;;;;;;5071440;28;20447;-66
2023/04/11 09:48:53;;;;;;;60.23;3.07;;;;;;;;;;5070864;28;20861;-67
2023/04/11 09:51:20;;;;;;;61.20;3.23;;;;;;;;;;5071332;28;20451;-67
2023/04/11 09:53:48;;;;;;;59.60;3.97;;;;;;;;;;5071285;28;20546;-67
2023/04/11 09:56:16;;;;;;;59.50;3.23;;;;;;;;;;5071063;28;20966;-67
2023/04/11 09:58:43;;;;;;;58.80;3.20;;;;;;;;;;5070652;28;20471;-68
2023/04/11 10:01:10;;;;;;;59.03;3.37;;;;;;;;;;5071048;28;20943;-67
2023/04/11 10:03:38;;;;;;;58.77;2.73;;;;;;;;;;5071213;28;20875;-66
2023/04/11 10:06:07;;;;;;;60.50;3.13;;;;;;;;;;5074450;28;20959;-68
2023/04/11 10:08:36;;;;;;;61.10;3.43;;;;;;;;;;5074217;28;20986;-67
2023/04/11 10:11:06;;;;;;;58.77;2.83;;;;;;;;;;5074404;28;20439;-68
2023/04/11 10:13:38;;;;;;;58.97;3.10;;;;;;;;;;5074641;28;20546;-65
2023/04/11 10:16:07;;;;;;;62.57;3.33;;;;;;;;;;5074596;28;20447;-69
2023/04/11 10:18:34;;;;;;;62.10;3.70;;;;;;;;;;5074182;28;20520;-66
2023/04/11 10:21:02;;;;;;;58.87;3.27;;;;;;;;;;5074206;28;20940;-69
2023/04/11 10:23:29;;;;;;;60.43;2.90;;;;;;;;;;5074033;28;20558;-68
2023/04/11 10:26:00;;;;;;;61.23;2.90;;;;;;;;;;5074465;28;20443;-68
2023/04/11 10:28:31;;;;;;;59.57;3.13;;;;;;;;;;5074234;28;20472;-68
2023/04/11 10:31:12;;;;;;;59.07;3.20;;;;;;;;;;5074046;28;20483;-68
2023/04/11 10:33:40;;;;;;;59.37;3.20;;;;;;;;;;5074120;28;20943;-67
2023/04/11 10:36:09;;;;;;;60.27;3.47;;;;;;;;;;5073882;28;20453;-68
2023/04/11 10:38:47;;;;;;;61.87;3.47;;;;;;;;;;5073547;28;20479;-68
2023/04/11 10:41:18;;;;;;;59.77;3.40;;;;;;;;;;5074167;28;20454;-68
2023/04/11 10:43:45;;;;;;;60.10;3.20;;;;;;;;;;5074303;28;20454;-65
2023/04/11 10:46:21;;;;;;;63.17;3.17;;;;;;;;;;5073767;28;20827;-68
2023/04/11 10:48:57;;;;;;;60.57;3.67;;;;;;;;;;5073259;28;21019;-68
2023/04/11 10:51:24;;;;;;;66.50;3.47;;;;;;;;;;5073765;28;20447;-67
2023/04/11 10:53:52;;;;;;;64.00;3.30;;;;;;;;;;5073839;28;20871;-68
2023/04/11 10:56:34;;;;;;;60.03;3.13;;;;;;;;;;5073689;28;20444;-65
2023/04/11 10:59:01;;;;;;;60.77;3.90;;;;;;;;;;5072940;28;21059;-66
2023/04/11 11:01:30;;;;;;;58.57;3.23;;;;;;;;;;5073984;28;20440;-68
2023/04/11 11:03:57;;;;;;;61.00;3.07;;;;;;;;;;5073665;28;20781;-66
2023/04/11 11:06:25;;;;;;;59.30;2.90;;;;;;;;;;5073510;28;20449;-66
2023/04/11 11:08:53;;;;;;;58.80;3.50;;;;;;;;;;5073107;28;20880;-65
2023/04/11 11:11:20;;;;;;;60.67;3.57;;;;;;;;;;5073260;28;20471;-65
2023/04/11 11:13:48;;;;;;;58.77;3.00;;;;;;;;;;5073643;28;20443;-67
2023/04/11 11:16:16;;;;;;;59.93;3.00;;;;;;;;;;5072880;28;20447;-66
2023/04/11 11:18:47;;;;;;;60.50;3.00;;;;;;;;;;5072863;28;20472;-66
2023/04/11 11:21:15;;;;;;;60.77;3.10;;;;;;;;;;5073141;28;20983;-68
2023/04/11 11:23:53;;;;;;;57.67;2.73;;;;;;;;;;5073023;28;20850;-68
2023/04/11 11:26:20;;;;;;;59.40;3.13;;;;;;;;;;5073393;28;20784;-68
2023/04/11 11:28:47;;;;;;;64.70;3.37;;;;;;;;;;5072764;28;20471;-69
2023/04/11 11:31:15;;;;;;;61.10;3.20;;;;;;;;;;5073039;28;20489;-68
2023/04/11 11:33:42;;;;;;;59.30;3.10;;;;;;;;;;5072980;28;20447;-68
2023/04/11 11:36:11;;;;;;;60.20;3.47;;;;;;;;;;5072823;28;20443;-69
2023/04/11 11:38:39;;;;;;;59.30;2.97;;;;;;;;;;5072438;28;20472;-69
2023/04/11 11:41:06;;;;;;;58.57;3.07;;;;;;;;;;5072968;28;20543;-69
2023/04/11 11:43:36;;;;;;;58.50;2.80;;;;;;;;;;5072872;28;20453;-69
2023/04/11 11:46:07;;;;;;;59.27;3.00;;;;;;;;;;5072806;28;20887;-66
2023/04/11 11:48:34;;;;;;;59.03;3.00;;;;;;;;;;5072126;28;20597;-66
2023/04/11 11:51:01;;;;;;;59.03;3.37;;;;;;;;;;5072313;28;20482;-66
2023/04/11 11:53:31;;;;;;;59.40;3.27;;;;;;;;;;5072423;28;20443;-69
2023/04/11 11:55:58;;;;;;;59.70;3.23;;;;;;;;;;5072585;28;20470;-69
2023/04/11 11:58:26;;;;;;;60.47;2.97;;;;;;;;;;5072522;28;20467;-68
2023/04/11 12:00:53;;;;;;;60.03;2.67;;;;;;;;;;5072255;28;20504;-66
2023/04/11 12:03:22;;;;;;;61.70;3.00;;;;;;;;;;5072363;28;20443;-69
2023/04/11 12:05:50;;;;;;;58.60;2.90;;;;;;;;;;5072352;28;20450;-66
2023/04/11 12:08:19;;;;;;;61.47;3.47;;;;;;;;;;5072252;28;20479;-66
2023/04/11 12:10:48;;;;;;;60.27;3.30;;;;;;;;;;5072125;28;20494;-70
2023/04/11 12:13:16;;;;;;;60.27;3.10;;;;;;;;;;5072155;28;20454;-68
2023/04/11 12:15:49;;;;;;;59.30;3.50;;;;;;;;;;5072165;28;20473;-67
2023/04/11 12:18:16;;;;;;;59.80;3.30;;;;;;;;;;5071921;28;20861;-70
2023/04/11 12:20:43;;;;;;;60.93;3.40;;;;;;;;;;5072191;28;20439;-68
2023/04/11 12:23:11;;;;;;;61.77;3.37;;;;;;;;;;5071873;28;20443;-71
2023/04/11 12:25:39;;;;;;;59.70;3.13;;;;;;;;;;5072121;28;20469;-69
2023/04/11 12:28:08;;;;;;;62.23;3.20;;;;;;;;;;5071100;28;20553;-68
2023/04/11 12:30:35;;;;;;;65.67;3.63;;;;;;;;;;5071560;28;20483;-68
2023/04/11 12:33:02;;;;;;;61.43;3.20;;;;;;;;;;5071829;28;20451;-66
2023/04/11 12:35:30;;;;;;;61.37;3.60;;;;;;;;;;5072005;28;20447;-67
2023/04/11 12:37:57;;;;;;;59.43;2.77;;;;;;;;;;5071874;28;20844;-66
2023/04/11 12:40:24;;;;;;;58.57;2.90;;;;;;;;;;5071702;28;20439;-67
2023/04/11 12:42:51;;;;;;;58.57;3.03;;;;;;;;;;5071821;28;20453;-67
2023/04/11 12:45:20;;;;;;;60.43;3.10;;;;;;;;;;5071647;28;20448;-67
2023/04/11 12:47:47;;;;;;;59.40;3.47;;;;;;;;;;5071915;28;20546;-66
2023/04/11 12:50:14;;;;;;;58.97;3.10;;;;;;;;;;5071499;28;20486;-67
2023/04/11 12:52:41;;;;;;;60.50;3.07;;;;;;;;;;5071987;28;20447;-67
2023/04/11 12:55:08;;;;;;;60.07;2.80;;;;;;;;;;5071813;28;20505;-66
2023/04/11 12:57:36;;;;;;;60.50;3.20;;;;;;;;;;5071547;28;20443;-69
2023/04/11 13:00:07;;;;;;;58.90;3.10;;;;;;;;;;5071582;28;20894;-66
2023/04/11 13:02:35;;;;;;;59.37;3.37;;;;;;;;;;5071777;28;20483;-69
2023/04/11 13:05:05;;;;;;;59.73;3.50;;;;;;;;;;5071676;28;20896;-67
2023/04/11 13:07:33;;;;;;;62.77;3.23;;;;;;;;;;5071561;28;20877;-68
2023/04/11 13:10:01;;;;;;;60.90;3.07;;;;;;;;;;5071258;28;20852;-67
2023/04/11 13:12:28;;;;;;;58.97;3.00;;;;;;;;;;5071487;28;20447;-68
2023/04/11 13:14:55;;;;;;;58.67;3.10;;;;;;;;;;5071708;28;20452;-66
2023/04/11 13:17:22;;;;;;;61.80;2.80;;;;;;;;;;5071569;28;20443;-67
2023/04/11 13:19:51;;;;;;;59.67;3.40;;;;;;;;;;5071161;28;20472;-67
2023/04/11 13:22:18;;;;;;;62.50;3.40;;;;;;;;;;5071628;28;20455;-69
2023/04/11 13:24:45;;;;;;;59.47;3.57;;;;;;;;;;5071675;28;20467;-67
2023/04/11 13:27:12;;;;;;;57.80;2.90;;;;;;;;;;5071670;28;20466;-69
2023/04/11 13:29:40;;;;;;;59.70;3.00;;;;;;;;;;5071218;28;20467;-68
2023/04/11 13:32:07;;;;;;;59.53;2.87;;;;;;;;;;5071455;28;20450;-66
2023/04/11 13:34:35;;;;;;;62.00;3.67;;;;;;;;;;5071360;28;20963;-66
2023/04/11 13:37:04;;;;;;;59.77;3.10;;;;;;;;;;5071218;28;20936;-70
2023/04/11 13:39:31;;;;;;;58.87;2.70;;;;;;;;;;5072652;28;20467;-70
2023/04/11 13:41:58;;;;;;;60.10;3.20;;;;;;;;;;5075063;28;20450;-67
2023/04/11 13:44:25;;;;;;;62.90;3.60;;;;;;;;;;5075125;28;20455;-67
2023/04/11 13:46:52;;;;;;;59.07;3.10;;;;;;;;;;5074824;28;20554;-67
2023/04/11 13:49:19;;;;;;;58.57;3.17;;;;;;;;;;5074361;28;20589;-66
2023/04/11 13:51:47;;;;;;;58.33;3.00;;;;;;;;;;5074647;28;20709;-67
2023/04/11 13:54:15;;;;;;;60.00;3.40;;;;;;;;;;5073887;28;20964;-68
2023/04/11 13:56:42;;;;;;;65.10;3.17;;;;;;;;;;5074614;28;20447;-67
2023/04/11 13:59:10;;;;;;;58.50;2.97;;;;;;;;;;5074476;28;20472;-68
2023/04/11 14:01:38;;;;;;;58.47;2.80;;;;;;;;;;5074598;28;20920;-67
2023/04/11 14:04:05;;;;;;;58.20;3.20;;;;;;;;;;5074838;28;20443;-67
2023/04/11 14:06:34;;;;;;;60.57;3.40;;;;;;;;;;5074686;28;20470;-67
2023/04/11 14:09:03;;;;;;;58.97;3.27;;;;;;;;;;5074271;28;20842;-67
2023/04/11 14:11:31;;;;;;;61.97;3.37;;;;;;;;;;5074905;28;20487;-68
2023/04/11 14:13:58;;;;;;;59.20;3.40;;;;;;;;;;5074551;28;20447;-67
2023/04/11 14:16:25;;;;;;;60.67;3.00;;;;;;;;;;5074360;28;20443;-67
2023/04/11 14:18:52;;;;;;;60.40;3.27;;;;;;;;;;5073972;28;20470;-67
2023/04/11 14:21:20;;;;;;;59.83;3.33;;;;;;;;;;5074410;28;20447;-67
2023/04/11 14:23:47;;;;;;;61.40;3.03;;;;;;;;;;5074287;28;20521;-67
2023/04/11 14:26:14;;;;;;;57.87;2.60;;;;;;;;;;5074383;28;20443;-68
2023/04/11 14:28:43;;;;;;;60.90;3.10;;;;;;;;;;5073572;28;20470;-67
2023/04/11 14:31:10;;;;;;;59.87;4.13;;;;;;;;;;5073901;28;20862;-67
2023/04/11 14:33:37;;;;;;;59.40;3.10;;;;;;;;;;5074073;28;20482;-65
2023/04/11 14:36:05;;;;;;;58.07;2.87;;;;;;;;;;5074039;28;20965;-66